KOAJ/OAJ METAR and TAF weather

Enter ICAO airport designator
Station Type Date Time Source
KOAJ METAR 2020/11/28 18:56 UTC NOAA

KOAJ 281856Z 00000KT 10SM FEW018 18/13 A3003 RMK AO2 SLP172 T01780133


Station Type Date Time Source
KOAJ Decoded METAR 2020/11/28 18:56 UTC NOAA

Jacksonville, Albert J Ellis Airport, NC, United States (KOAJ) 34-50N 077-37W
Nov 28, 2020 - 01:56 PM EST / 2020.11.28 1856 UTC
Wind: Calm:0
Visibility: 10 mile(s):0
Sky conditions: mostly clear
Temperature: 64.0 F (17.8 C)
Dew Point: 55.9 F (13.3 C)
Relative Humidity: 74%
Pressure (altimeter): 30.03 in. Hg (1016 hPa)
ob: KOAJ 281856Z 00000KT 10SM FEW018 18/13 A3003 RMK AO2 SLP172 T01780133
cycle: 19

Station Type Date Time Source
KOAJ TAF 2020/11/28 18:44 UTC NOAA

TAF KOAJ 281744Z 2818/2918 33004KT P6SM FEW150
FM290800 00000KT 3SM BR SCT007
FM291400 06004KT P6SM SCT150
FM291700 09005KT P6SM SCT200
AMD LTD TO CLD VIS AND WIND

Example: see airport list